sensor_id;sensor_type;location;lat;lon;timestamp;P1;durP1;ratioP1;P2;durP2;ratioP2
55212;SDS011;41083;52.932;6.674;2023-09-07T00:01:25;3.20;;;2.15;;
55212;SDS011;41083;52.932;6.674;2023-09-07T00:03:51;4.18;;;1.95;;
55212;SDS011;41083;52.932;6.674;2023-09-07T00:06:16;3.08;;;1.98;;
55212;SDS011;41083;52.932;6.674;2023-09-07T00:08:42;4.35;;;2.05;;
55212;SDS011;41083;52.932;6.674;2023-09-07T00:11:09;2.63;;;1.77;;
55212;SDS011;41083;52.932;6.674;2023-09-07T00:13:35;4.97;;;2.30;;
55212;SDS011;41083;52.932;6.674;2023-09-07T00:16:02;6.45;;;1.88;;
55212;SDS011;41083;52.932;6.674;2023-09-07T00:18:29;3.95;;;1.67;;
55212;SDS011;41083;52.932;6.674;2023-09-07T00:20:55;3.42;;;2.00;;
55212;SDS011;41083;52.932;6.674;2023-09-07T00:23:20;3.42;;;2.08;;
55212;SDS011;41083;52.932;6.674;2023-09-07T00:25:46;3.67;;;2.22;;
55212;SDS011;41083;52.932;6.674;2023-09-07T00:28:12;2.95;;;1.90;;
55212;SDS011;41083;52.932;6.674;2023-09-07T00:30:37;3.50;;;1.98;;
55212;SDS011;41083;52.932;6.674;2023-09-07T00:33:04;3.67;;;2.08;;
55212;SDS011;41083;52.932;6.674;2023-09-07T00:35:29;3.95;;;2.22;;
55212;SDS011;41083;52.932;6.674;2023-09-07T00:37:55;3.28;;;1.75;;
55212;SDS011;41083;52.932;6.674;2023-09-07T00:40:21;4.85;;;2.20;;
55212;SDS011;41083;52.932;6.674;2023-09-07T00:42:47;4.38;;;2.08;;
55212;SDS011;41083;52.932;6.674;2023-09-07T00:45:13;3.45;;;2.00;;
55212;SDS011;41083;52.932;6.674;2023-09-07T00:47:38;3.33;;;2.00;;
55212;SDS011;41083;52.932;6.674;2023-09-07T00:50:05;3.33;;;2.05;;
55212;SDS011;41083;52.932;6.674;2023-09-07T00:52:32;3.67;;;2.30;;
55212;SDS011;41083;52.932;6.674;2023-09-07T00:54:59;3.65;;;2.13;;
55212;SDS011;41083;52.932;6.674;2023-09-07T00:57:27;5.20;;;2.15;;
55212;SDS011;41083;52.932;6.674;2023-09-07T00:59:52;3.25;;;1.70;;
55212;SDS011;41083;52.932;6.674;2023-09-07T01:02:19;4.32;;;2.17;;
55212;SDS011;41083;52.932;6.674;2023-09-07T01:04:44;3.70;;;2.13;;
55212;SDS011;41083;52.932;6.674;2023-09-07T01:07:17;3.97;;;2.15;;
55212;SDS011;41083;52.932;6.674;2023-09-07T01:09:49;4.53;;;2.08;;
55212;SDS011;41083;52.932;6.674;2023-09-07T01:12:22;7.30;;;2.35;;
55212;SDS011;41083;52.932;6.674;2023-09-07T01:14:48;4.78;;;2.20;;
55212;SDS011;41083;52.932;6.674;2023-09-07T01:17:14;4.68;;;2.03;;
55212;SDS011;41083;52.932;6.674;2023-09-07T01:19:40;4.53;;;2.13;;
55212;SDS011;41083;52.932;6.674;2023-09-07T01:22:07;3.50;;;2.00;;
55212;SDS011;41083;52.932;6.674;2023-09-07T01:24:33;6.53;;;2.17;;
55212;SDS011;41083;52.932;6.674;2023-09-07T01:27:03;4.13;;;2.42;;
55212;SDS011;41083;52.932;6.674;2023-09-07T01:29:29;3.55;;;2.20;;
55212;SDS011;41083;52.932;6.674;2023-09-07T01:31:56;3.28;;;2.17;;
55212;SDS011;41083;52.932;6.674;2023-09-07T01:34:22;4.65;;;1.83;;
55212;SDS011;41083;52.932;6.674;2023-09-07T01:36:48;3.58;;;2.03;;
55212;SDS011;41083;52.932;6.674;2023-09-07T01:39:14;3.55;;;1.95;;
55212;SDS011;41083;52.932;6.674;2023-09-07T01:41:41;3.15;;;1.60;;
55212;SDS011;41083;52.932;6.674;2023-09-07T01:44:07;4.07;;;2.05;;
55212;SDS011;41083;52.932;6.674;2023-09-07T01:46:33;4.50;;;2.25;;
55212;SDS011;41083;52.932;6.674;2023-09-07T01:49:00;4.47;;;2.30;;
55212;SDS011;41083;52.932;6.674;2023-09-07T01:51:26;4.30;;;2.20;;
55212;SDS011;41083;52.932;6.674;2023-09-07T01:53:52;6.50;;;2.22;;
55212;SDS011;41083;52.932;6.674;2023-09-07T01:56:18;6.72;;;2.30;;
55212;SDS011;41083;52.932;6.674;2023-09-07T01:58:44;3.72;;;2.20;;
55212;SDS011;41083;52.932;6.674;2023-09-07T02:01:26;3.33;;;1.90;;
55212;SDS011;41083;52.932;6.674;2023-09-07T02:03:54;4.43;;;2.35;;
55212;SDS011;41083;52.932;6.674;2023-09-07T02:06:20;3.47;;;1.52;;
55212;SDS011;41083;52.932;6.674;2023-09-07T02:08:45;2.90;;;1.73;;
55212;SDS011;41083;52.932;6.674;2023-09-07T02:11:11;3.13;;;1.90;;
55212;SDS011;41083;52.932;6.674;2023-09-07T02:13:37;5.40;;;2.28;;
55212;SDS011;41083;52.932;6.674;2023-09-07T02:16:06;3.53;;;2.00;;
55212;SDS011;41083;52.932;6.674;2023-09-07T02:18:32;4.93;;;2.13;;
55212;SDS011;41083;52.932;6.674;2023-09-07T02:21:04;4.95;;;1.88;;
55212;SDS011;41083;52.932;6.674;2023-09-07T02:23:30;3.50;;;2.08;;
55212;SDS011;41083;52.932;6.674;2023-09-07T02:25:57;3.95;;;2.03;;
55212;SDS011;41083;52.932;6.674;2023-09-07T02:28:23;5.00;;;2.35;;
55212;SDS011;41083;52.932;6.674;2023-09-07T02:30:49;3.20;;;2.03;;
55212;SDS011;41083;52.932;6.674;2023-09-07T02:33:15;4.20;;;2.20;;
55212;SDS011;41083;52.932;6.674;2023-09-07T02:35:40;3.85;;;2.15;;
55212;SDS011;41083;52.932;6.674;2023-09-07T02:38:06;3.65;;;2.28;;
55212;SDS011;41083;52.932;6.674;2023-09-07T02:40:31;3.05;;;2.22;;
55212;SDS011;41083;52.932;6.674;2023-09-07T02:42:57;4.05;;;1.80;;
55212;SDS011;41083;52.932;6.674;2023-09-07T02:45:22;4.47;;;2.35;;
55212;SDS011;41083;52.932;6.674;2023-09-07T02:47:48;4.75;;;2.65;;
55212;SDS011;41083;52.932;6.674;2023-09-07T02:50:15;3.88;;;2.10;;
55212;SDS011;41083;52.932;6.674;2023-09-07T02:52:43;5.85;;;2.58;;
55212;SDS011;41083;52.932;6.674;2023-09-07T02:55:08;4.43;;;2.38;;
55212;SDS011;41083;52.932;6.674;2023-09-07T02:57:34;4.78;;;2.20;;
55212;SDS011;41083;52.932;6.674;2023-09-07T03:00:00;5.10;;;3.13;;
55212;SDS011;41083;52.932;6.674;2023-09-07T03:02:27;3.63;;;2.30;;
55212;SDS011;41083;52.932;6.674;2023-09-07T03:04:53;4.18;;;2.25;;
55212;SDS011;41083;52.932;6.674;2023-09-07T03:07:20;3.55;;;2.17;;
55212;SDS011;41083;52.932;6.674;2023-09-07T03:09:45;3.35;;;2.28;;
55212;SDS011;41083;52.932;6.674;2023-09-07T03:12:11;4.78;;;2.40;;
55212;SDS011;41083;52.932;6.674;2023-09-07T03:14:36;3.72;;;2.40;;
55212;SDS011;41083;52.932;6.674;2023-09-07T03:17:02;4.05;;;2.30;;
55212;SDS011;41083;52.932;6.674;2023-09-07T03:19:28;4.32;;;2.50;;
55212;SDS011;41083;52.932;6.674;2023-09-07T03:21:54;5.35;;;2.22;;
55212;SDS011;41083;52.932;6.674;2023-09-07T03:24:20;5.68;;;3.00;;
55212;SDS011;41083;52.932;6.674;2023-09-07T03:26:45;4.72;;;2.78;;
55212;SDS011;41083;52.932;6.674;2023-09-07T03:29:11;6.13;;;2.67;;
55212;SDS011;41083;52.932;6.674;2023-09-07T03:31:37;4.57;;;2.42;;
55212;SDS011;41083;52.932;6.674;2023-09-07T03:34:02;3.95;;;2.30;;
55212;SDS011;41083;52.932;6.674;2023-09-07T03:36:28;3.67;;;2.17;;
55212;SDS011;41083;52.932;6.674;2023-09-07T03:38:53;4.18;;;2.47;;
55212;SDS011;41083;52.932;6.674;2023-09-07T03:41:19;4.20;;;2.60;;
55212;SDS011;41083;52.932;6.674;2023-09-07T03:43:44;6.28;;;2.78;;
55212;SDS011;41083;52.932;6.674;2023-09-07T03:46:10;4.93;;;2.78;;
55212;SDS011;41083;52.932;6.674;2023-09-07T03:48:35;5.20;;;2.75;;
55212;SDS011;41083;52.932;6.674;2023-09-07T03:51:05;6.55;;;2.58;;
55212;SDS011;41083;52.932;6.674;2023-09-07T03:53:31;4.82;;;2.80;;
55212;SDS011;41083;52.932;6.674;2023-09-07T03:55:57;4.72;;;2.67;;
55212;SDS011;41083;52.932;6.674;2023-09-07T03:58:22;3.97;;;2.53;;
55212;SDS011;41083;52.932;6.674;2023-09-07T04:00:48;4.32;;;2.47;;
55212;SDS011;41083;52.932;6.674;2023-09-07T04:03:14;5.35;;;2.38;;
55212;SDS011;41083;52.932;6.674;2023-09-07T04:05:39;6.35;;;3.22;;
55212;SDS011;41083;52.932;6.674;2023-09-07T04:08:05;5.90;;;2.65;;
55212;SDS011;41083;52.932;6.674;2023-09-07T04:10:32;5.20;;;2.70;;
55212;SDS011;41083;52.932;6.674;2023-09-07T04:12:58;5.57;;;2.85;;
55212;SDS011;41083;52.932;6.674;2023-09-07T04:15:23;4.95;;;2.83;;
55212;SDS011;41083;52.932;6.674;2023-09-07T04:17:50;6.00;;;2.97;;
55212;SDS011;41083;52.932;6.674;2023-09-07T04:20:16;7.45;;;2.63;;
55212;SDS011;41083;52.932;6.674;2023-09-07T04:22:42;5.80;;;3.15;;
55212;SDS011;41083;52.932;6.674;2023-09-07T04:25:07;7.32;;;3.10;;
55212;SDS011;41083;52.932;6.674;2023-09-07T04:27:33;6.38;;;2.88;;
55212;SDS011;41083;52.932;6.674;2023-09-07T04:29:59;5.22;;;2.60;;
55212;SDS011;41083;52.932;6.674;2023-09-07T04:32:24;6.60;;;2.97;;
55212;SDS011;41083;52.932;6.674;2023-09-07T04:34:54;4.93;;;2.88;;
55212;SDS011;41083;52.932;6.674;2023-09-07T04:37:21;5.30;;;3.03;;
55212;SDS011;41083;52.932;6.674;2023-09-07T04:39:51;5.22;;;3.22;;
55212;SDS011;41083;52.932;6.674;2023-09-07T04:42:20;5.82;;;2.85;;
55212;SDS011;41083;52.932;6.674;2023-09-07T04:44:49;5.35;;;3.03;;
55212;SDS011;41083;52.932;6.674;2023-09-07T04:47:14;6.47;;;2.90;;
55212;SDS011;41083;52.932;6.674;2023-09-07T04:49:47;7.25;;;3.45;;
55212;SDS011;41083;52.932;6.674;2023-09-07T04:52:15;6.55;;;3.22;;
55212;SDS011;41083;52.932;6.674;2023-09-07T04:54:40;8.02;;;2.90;;
55212;SDS011;41083;52.932;6.674;2023-09-07T04:57:06;5.97;;;3.03;;
55212;SDS011;41083;52.932;6.674;2023-09-07T04:59:31;5.85;;;2.97;;
55212;SDS011;41083;52.932;6.674;2023-09-07T05:01:59;5.80;;;3.22;;
55212;SDS011;41083;52.932;6.674;2023-09-07T05:04:26;4.40;;;3.20;;
55212;SDS011;41083;52.932;6.674;2023-09-07T05:06:52;5.00;;;2.90;;
55212;SDS011;41083;52.932;6.674;2023-09-07T05:09:18;4.95;;;2.92;;
55212;SDS011;41083;52.932;6.674;2023-09-07T05:11:45;5.53;;;3.00;;
55212;SDS011;41083;52.932;6.674;2023-09-07T05:14:10;6.18;;;2.67;;
55212;SDS011;41083;52.932;6.674;2023-09-07T05:16:36;5.43;;;3.38;;
55212;SDS011;41083;52.932;6.674;2023-09-07T05:19:02;6.15;;;2.85;;
55212;SDS011;41083;52.932;6.674;2023-09-07T05:21:28;5.00;;;2.70;;
55212;SDS011;41083;52.932;6.674;2023-09-07T05:23:54;7.05;;;3.03;;
55212;SDS011;41083;52.932;6.674;2023-09-07T05:26:22;5.53;;;2.90;;
55212;SDS011;41083;52.932;6.674;2023-09-07T05:28:50;5.05;;;2.92;;
55212;SDS011;41083;52.932;6.674;2023-09-07T05:31:16;6.32;;;3.00;;
55212;SDS011;41083;52.932;6.674;2023-09-07T05:33:42;9.52;;;3.42;;
55212;SDS011;41083;52.932;6.674;2023-09-07T05:36:07;4.78;;;3.22;;
55212;SDS011;41083;52.932;6.674;2023-09-07T05:38:33;5.97;;;3.38;;
55212;SDS011;41083;52.932;6.674;2023-09-07T05:40:59;6.38;;;3.45;;
55212;SDS011;41083;52.932;6.674;2023-09-07T05:43:25;9.23;;;3.28;;
55212;SDS011;41083;52.932;6.674;2023-09-07T05:45:50;6.47;;;3.53;;
55212;SDS011;41083;52.932;6.674;2023-09-07T05:48:16;5.70;;;2.92;;
55212;SDS011;41083;52.932;6.674;2023-09-07T05:50:42;6.93;;;3.17;;
55212;SDS011;41083;52.932;6.674;2023-09-07T05:53:08;5.85;;;2.80;;
55212;SDS011;41083;52.932;6.674;2023-09-07T05:55:34;6.05;;;3.42;;
55212;SDS011;41083;52.932;6.674;2023-09-07T05:57:59;5.38;;;3.47;;
55212;SDS011;41083;52.932;6.674;2023-09-07T06:00:29;7.80;;;3.83;;
55212;SDS011;41083;52.932;6.674;2023-09-07T06:02:54;8.27;;;3.90;;
55212;SDS011;41083;52.932;6.674;2023-09-07T06:05:20;9.30;;;3.92;;
55212;SDS011;41083;52.932;6.674;2023-09-07T06:07:46;6.72;;;3.33;;
55212;SDS011;41083;52.932;6.674;2023-09-07T06:10:11;6.10;;;3.40;;
55212;SDS011;41083;52.932;6.674;2023-09-07T06:12:37;5.88;;;3.33;;
55212;SDS011;41083;52.932;6.674;2023-09-07T06:15:03;7.72;;;3.72;;
55212;SDS011;41083;52.932;6.674;2023-09-07T06:17:29;6.97;;;3.40;;
55212;SDS011;41083;52.932;6.674;2023-09-07T06:19:55;6.50;;;3.45;;
55212;SDS011;41083;52.932;6.674;2023-09-07T06:22:20;6.28;;;3.50;;
55212;SDS011;41083;52.932;6.674;2023-09-07T06:24:46;5.65;;;3.47;;
55212;SDS011;41083;52.932;6.674;2023-09-07T06:27:12;7.10;;;3.35;;
55212;SDS011;41083;52.932;6.674;2023-09-07T06:29:38;5.78;;;3.50;;
55212;SDS011;41083;52.932;6.674;2023-09-07T06:32:03;6.35;;;3.58;;
55212;SDS011;41083;52.932;6.674;2023-09-07T06:34:29;6.13;;;3.63;;
55212;SDS011;41083;52.932;6.674;2023-09-07T06:36:55;6.90;;;3.85;;
55212;SDS011;41083;52.932;6.674;2023-09-07T06:39:20;7.95;;;4.10;;
55212;SDS011;41083;52.932;6.674;2023-09-07T06:41:46;7.05;;;3.47;;
55212;SDS011;41083;52.932;6.674;2023-09-07T06:44:12;6.68;;;3.53;;
55212;SDS011;41083;52.932;6.674;2023-09-07T06:46:37;6.03;;;3.53;;
55212;SDS011;41083;52.932;6.674;2023-09-07T06:49:03;5.65;;;3.42;;
55212;SDS011;41083;52.932;6.674;2023-09-07T06:51:30;6.18;;;3.67;;
55212;SDS011;41083;52.932;6.674;2023-09-07T06:53:56;6.47;;;3.90;;
55212;SDS011;41083;52.932;6.674;2023-09-07T06:56:22;9.13;;;4.00;;
55212;SDS011;41083;52.932;6.674;2023-09-07T06:58:48;7.10;;;3.83;;
55212;SDS011;41083;52.932;6.674;2023-09-07T07:01:14;8.77;;;4.07;;
55212;SDS011;41083;52.932;6.674;2023-09-07T07:03:41;9.25;;;4.13;;
55212;SDS011;41083;52.932;6.674;2023-09-07T07:06:07;6.78;;;4.05;;
55212;SDS011;41083;52.932;6.674;2023-09-07T07:08:33;9.18;;;3.88;;
55212;SDS011;41083;52.932;6.674;2023-09-07T07:10:58;6.18;;;3.90;;
55212;SDS011;41083;52.932;6.674;2023-09-07T07:13:24;7.00;;;3.53;;
55212;SDS011;41083;52.932;6.674;2023-09-07T07:15:51;9.68;;;4.10;;
55212;SDS011;41083;52.932;6.674;2023-09-07T07:18:16;7.03;;;3.63;;
55212;SDS011;41083;52.932;6.674;2023-09-07T07:20:42;6.75;;;3.00;;
55212;SDS011;41083;52.932;6.674;2023-09-07T07:23:11;6.63;;;3.90;;
55212;SDS011;41083;52.932;6.674;2023-09-07T07:25:40;6.75;;;3.72;;
55212;SDS011;41083;52.932;6.674;2023-09-07T07:28:05;6.20;;;3.30;;
55212;SDS011;41083;52.932;6.674;2023-09-07T07:30:36;7.88;;;3.90;;
55212;SDS011;41083;52.932;6.674;2023-09-07T07:33:02;6.50;;;3.85;;
55212;SDS011;41083;52.932;6.674;2023-09-07T07:35:29;6.03;;;3.10;;
55212;SDS011;41083;52.932;6.674;2023-09-07T07:37:55;6.30;;;3.33;;
55212;SDS011;41083;52.932;6.674;2023-09-07T07:40:21;6.75;;;3.22;;
55212;SDS011;41083;52.932;6.674;2023-09-07T07:42:47;5.82;;;3.38;;
55212;SDS011;41083;52.932;6.674;2023-09-07T07:45:13;6.25;;;3.55;;
55212;SDS011;41083;52.932;6.674;2023-09-07T07:47:42;6.30;;;2.95;;
55212;SDS011;41083;52.932;6.674;2023-09-07T07:50:08;5.65;;;3.47;;
55212;SDS011;41083;52.932;6.674;2023-09-07T07:52:33;4.88;;;3.00;;
55212;SDS011;41083;52.932;6.674;2023-09-07T07:54:59;4.88;;;3.03;;
55212;SDS011;41083;52.932;6.674;2023-09-07T07:57:25;5.15;;;3.03;;
55212;SDS011;41083;52.932;6.674;2023-09-07T07:59:51;5.60;;;3.35;;
55212;SDS011;41083;52.932;6.674;2023-09-07T08:02:16;6.47;;;3.10;;
55212;SDS011;41083;52.932;6.674;2023-09-07T08:04:42;4.72;;;2.88;;
55212;SDS011;41083;52.932;6.674;2023-09-07T08:07:07;4.57;;;2.95;;
55212;SDS011;41083;52.932;6.674;2023-09-07T08:09:33;5.07;;;3.13;;
55212;SDS011;41083;52.932;6.674;2023-09-07T08:11:59;7.20;;;3.08;;
55212;SDS011;41083;52.932;6.674;2023-09-07T08:14:28;5.60;;;3.13;;
55212;SDS011;41083;52.932;6.674;2023-09-07T08:16:54;5.78;;;2.80;;
55212;SDS011;41083;52.932;6.674;2023-09-07T08:19:19;6.00;;;3.22;;
55212;SDS011;41083;52.932;6.674;2023-09-07T08:21:45;5.22;;;3.15;;
55212;SDS011;41083;52.932;6.674;2023-09-07T08:24:12;4.90;;;2.83;;
55212;SDS011;41083;52.932;6.674;2023-09-07T08:26:38;5.72;;;3.25;;
55212;SDS011;41083;52.932;6.674;2023-09-07T08:29:04;9.98;;;3.88;;
55212;SDS011;41083;52.932;6.674;2023-09-07T08:31:33;5.25;;;3.17;;
55212;SDS011;41083;52.932;6.674;2023-09-07T08:34:04;5.35;;;3.00;;
55212;SDS011;41083;52.932;6.674;2023-09-07T08:36:31;5.68;;;2.55;;
55212;SDS011;41083;52.932;6.674;2023-09-07T08:38:58;5.80;;;3.00;;
55212;SDS011;41083;52.932;6.674;2023-09-07T08:41:40;4.35;;;2.92;;
55212;SDS011;41083;52.932;6.674;2023-09-07T08:44:12;4.22;;;2.28;;
55212;SDS011;41083;52.932;6.674;2023-09-07T08:46:40;5.10;;;2.67;;
55212;SDS011;41083;52.932;6.674;2023-09-07T08:49:07;5.20;;;3.22;;
55212;SDS011;41083;52.932;6.674;2023-09-07T08:51:34;5.03;;;2.67;;
55212;SDS011;41083;52.932;6.674;2023-09-07T08:54:02;5.03;;;2.60;;
55212;SDS011;41083;52.932;6.674;2023-09-07T08:56:28;5.07;;;2.53;;
55212;SDS011;41083;52.932;6.674;2023-09-07T08:58:54;4.22;;;2.90;;
55212;SDS011;41083;52.932;6.674;2023-09-07T12:05:29;3.40;;;1.80;;
55212;SDS011;41083;52.932;6.674;2023-09-07T12:07:55;3.58;;;2.00;;
55212;SDS011;41083;52.932;6.674;2023-09-07T12:10:21;3.85;;;2.13;;
55212;SDS011;41083;52.932;6.674;2023-09-07T12:12:46;3.95;;;1.90;;
55212;SDS011;41083;52.932;6.674;2023-09-07T12:15:12;6.40;;;2.20;;
55212;SDS011;41083;52.932;6.674;2023-09-07T12:17:38;4.07;;;2.20;;
55212;SDS011;41083;52.932;6.674;2023-09-07T12:20:04;3.53;;;2.30;;
55212;SDS011;41083;52.932;6.674;2023-09-07T12:22:35;3.38;;;2.03;;
55212;SDS011;41083;52.932;6.674;2023-09-07T12:25:04;4.18;;;2.10;;
55212;SDS011;41083;52.932;6.674;2023-09-07T12:27:32;5.22;;;2.30;;
55212;SDS011;41083;52.932;6.674;2023-09-07T12:29:59;3.83;;;1.80;;
55212;SDS011;41083;52.932;6.674;2023-09-07T12:32:25;4.03;;;2.10;;
55212;SDS011;41083;52.932;6.674;2023-09-07T12:34:50;4.43;;;2.15;;
55212;SDS011;41083;52.932;6.674;2023-09-07T12:37:18;5.30;;;2.15;;
55212;SDS011;41083;52.932;6.674;2023-09-07T12:39:44;3.63;;;2.20;;
55212;SDS011;41083;52.932;6.674;2023-09-07T12:42:10;3.67;;;2.10;;
55212;SDS011;41083;52.932;6.674;2023-09-07T12:44:35;3.55;;;2.17;;
55212;SDS011;41083;52.932;6.674;2023-09-07T12:47:01;6.78;;;2.05;;
55212;SDS011;41083;52.932;6.674;2023-09-07T12:49:27;4.38;;;2.30;;
55212;SDS011;41083;52.932;6.674;2023-09-07T12:51:52;4.97;;;1.95;;
55212;SDS011;41083;52.932;6.674;2023-09-07T12:54:18;4.97;;;2.92;;
55212;SDS011;41083;52.932;6.674;2023-09-07T12:56:43;4.00;;;2.33;;
55212;SDS011;41083;52.932;6.674;2023-09-07T12:59:10;3.78;;;2.40;;
55212;SDS011;41083;52.932;6.674;2023-09-07T13:01:35;6.22;;;3.22;;
55212;SDS011;41083;52.932;6.674;2023-09-07T13:04:01;3.25;;;1.83;;
55212;SDS011;41083;52.932;6.674;2023-09-07T13:06:27;3.85;;;2.00;;
55212;SDS011;41083;52.932;6.674;2023-09-07T13:08:53;4.22;;;2.05;;
55212;SDS011;41083;52.932;6.674;2023-09-07T13:11:19;6.70;;;2.33;;
55212;SDS011;41083;52.932;6.674;2023-09-07T13:13:44;4.55;;;2.40;;
55212;SDS011;41083;52.932;6.674;2023-09-07T13:16:10;3.92;;;1.98;;
55212;SDS011;41083;52.932;6.674;2023-09-07T13:18:36;4.53;;;2.22;;
55212;SDS011;41083;52.932;6.674;2023-09-07T13:21:02;2.80;;;1.83;;
55212;SDS011;41083;52.932;6.674;2023-09-07T13:23:28;3.50;;;2.20;;
55212;SDS011;41083;52.932;6.674;2023-09-07T13:25:57;4.82;;;2.20;;
55212;SDS011;41083;52.932;6.674;2023-09-07T13:28:22;4.97;;;2.28;;
55212;SDS011;41083;52.932;6.674;2023-09-07T13:30:49;3.28;;;1.90;;
55212;SDS011;41083;52.932;6.674;2023-09-07T13:33:15;3.70;;;1.98;;
55212;SDS011;41083;52.932;6.674;2023-09-07T13:35:41;3.35;;;1.92;;
55212;SDS011;41083;52.932;6.674;2023-09-07T13:38:06;4.47;;;2.03;;
55212;SDS011;41083;52.932;6.674;2023-09-07T13:40:32;3.47;;;2.13;;
55212;SDS011;41083;52.932;6.674;2023-09-07T13:42:58;5.15;;;2.28;;
55212;SDS011;41083;52.932;6.674;2023-09-07T13:45:24;4.70;;;2.05;;
55212;SDS011;41083;52.932;6.674;2023-09-07T13:47:49;6.18;;;2.15;;
55212;SDS011;41083;52.932;6.674;2023-09-07T13:50:15;3.72;;;2.10;;
55212;SDS011;41083;52.932;6.674;2023-09-07T13:52:41;3.65;;;2.28;;
55212;SDS011;41083;52.932;6.674;2023-09-07T13:55:07;3.75;;;1.90;;
55212;SDS011;41083;52.932;6.674;2023-09-07T13:57:33;4.97;;;2.05;;
55212;SDS011;41083;52.932;6.674;2023-09-07T13:59:59;3.33;;;1.73;;
55212;SDS011;41083;52.932;6.674;2023-09-07T14:02:25;3.78;;;2.05;;
55212;SDS011;41083;52.932;6.674;2023-09-07T14:04:51;4.82;;;2.40;;
55212;SDS011;41083;52.932;6.674;2023-09-07T14:07:16;4.35;;;2.15;;
55212;SDS011;41083;52.932;6.674;2023-09-07T14:09:43;4.45;;;2.40;;
55212;SDS011;41083;52.932;6.674;2023-09-07T14:12:09;5.85;;;2.17;;
55212;SDS011;41083;52.932;6.674;2023-09-07T14:14:34;3.28;;;2.03;;
55212;SDS011;41083;52.932;6.674;2023-09-07T14:17:00;4.05;;;2.00;;
55212;SDS011;41083;52.932;6.674;2023-09-07T14:19:27;3.95;;;2.13;;
55212;SDS011;41083;52.932;6.674;2023-09-07T14:21:56;3.53;;;2.10;;
55212;SDS011;41083;52.932;6.674;2023-09-07T14:24:22;3.28;;;1.90;;
55212;SDS011;41083;52.932;6.674;2023-09-07T14:26:48;4.72;;;2.30;;
55212;SDS011;41083;52.932;6.674;2023-09-07T14:29:14;4.07;;;2.05;;
55212;SDS011;41083;52.932;6.674;2023-09-07T14:31:39;3.30;;;1.88;;
55212;SDS011;41083;52.932;6.674;2023-09-07T14:34:07;4.75;;;1.80;;
55212;SDS011;41083;52.932;6.674;2023-09-07T14:36:32;3.83;;;2.20;;
55212;SDS011;41083;52.932;6.674;2023-09-07T14:39:00;3.95;;;2.15;;
55212;SDS011;41083;52.932;6.674;2023-09-07T14:41:28;4.53;;;2.20;;
55212;SDS011;41083;52.932;6.674;2023-09-07T14:43:55;8.02;;;2.17;;
55212;SDS011;41083;52.932;6.674;2023-09-07T14:46:21;4.97;;;2.03;;
55212;SDS011;41083;52.932;6.674;2023-09-07T14:48:48;3.65;;;2.10;;
55212;SDS011;41083;52.932;6.674;2023-09-07T14:51:14;3.20;;;1.50;;
55212;SDS011;41083;52.932;6.674;2023-09-07T14:53:40;3.03;;;1.75;;
55212;SDS011;41083;52.932;6.674;2023-09-07T14:56:05;2.75;;;1.77;;
55212;SDS011;41083;52.932;6.674;2023-09-07T14:58:31;4.43;;;2.42;;
55212;SDS011;41083;52.932;6.674;2023-09-07T15:00:57;3.40;;;2.10;;
55212;SDS011;41083;52.932;6.674;2023-09-07T15:03:23;5.38;;;2.08;;
55212;SDS011;41083;52.932;6.674;2023-09-07T15:05:49;4.53;;;2.30;;
55212;SDS011;41083;52.932;6.674;2023-09-07T15:08:14;5.28;;;1.95;;
55212;SDS011;41083;52.932;6.674;2023-09-07T15:10:40;4.22;;;2.05;;
55212;SDS011;41083;52.932;6.674;2023-09-07T15:13:06;3.20;;;1.90;;
55212;SDS011;41083;52.932;6.674;2023-09-07T15:15:33;6.20;;;2.13;;
55212;SDS011;41083;52.932;6.674;2023-09-07T15:18:02;4.50;;;1.77;;
55212;SDS011;41083;52.932;6.674;2023-09-07T15:20:28;3.10;;;1.90;;
55212;SDS011;41083;52.932;6.674;2023-09-07T15:22:54;4.88;;;2.20;;
55212;SDS011;41083;52.932;6.674;2023-09-07T15:25:20;3.00;;;1.65;;
55212;SDS011;41083;52.932;6.674;2023-09-07T15:27:46;4.90;;;2.15;;
55212;SDS011;41083;52.932;6.674;2023-09-07T15:30:14;4.93;;;1.73;;
55212;SDS011;41083;52.932;6.674;2023-09-07T15:32:40;4.47;;;1.75;;
55212;SDS011;41083;52.932;6.674;2023-09-07T15:35:09;3.40;;;1.90;;
55212;SDS011;41083;52.932;6.674;2023-09-07T15:37:35;5.70;;;2.50;;
55212;SDS011;41083;52.932;6.674;2023-09-07T15:40:00;4.13;;;1.75;;
55212;SDS011;41083;52.932;6.674;2023-09-07T15:42:26;4.03;;;2.03;;
55212;SDS011;41083;52.932;6.674;2023-09-07T15:44:52;3.20;;;1.63;;
55212;SDS011;41083;52.932;6.674;2023-09-07T15:47:18;4.18;;;2.47;;
55212;SDS011;41083;52.932;6.674;2023-09-07T15:49:44;6.63;;;1.90;;
55212;SDS011;41083;52.932;6.674;2023-09-07T15:52:11;5.13;;;1.70;;
55212;SDS011;41083;52.932;6.674;2023-09-07T15:54:38;3.63;;;1.95;;
55212;SDS011;41083;52.932;6.674;2023-09-07T15:57:04;3.20;;;1.95;;
55212;SDS011;41083;52.932;6.674;2023-09-07T15:59:30;3.72;;;1.98;;
55212;SDS011;41083;52.932;6.674;2023-09-07T16:01:56;3.13;;;2.08;;
55212;SDS011;41083;52.932;6.674;2023-09-07T16:04:22;4.07;;;2.10;;
55212;SDS011;41083;52.932;6.674;2023-09-07T16:06:48;4.07;;;1.73;;
55212;SDS011;41083;52.932;6.674;2023-09-07T16:09:14;3.65;;;2.05;;
55212;SDS011;41083;52.932;6.674;2023-09-07T16:11:40;4.03;;;2.05;;
55212;SDS011;41083;52.932;6.674;2023-09-07T16:14:06;3.40;;;1.90;;
55212;SDS011;41083;52.932;6.674;2023-09-07T16:16:31;4.18;;;2.15;;
55212;SDS011;41083;52.932;6.674;2023-09-07T16:18:58;3.10;;;1.63;;
55212;SDS011;41083;52.932;6.674;2023-09-07T16:21:24;3.58;;;2.03;;
55212;SDS011;41083;52.932;6.674;2023-09-07T16:23:50;3.20;;;1.92;;
55212;SDS011;41083;52.932;6.674;2023-09-07T16:26:15;2.92;;;1.90;;
55212;SDS011;41083;52.932;6.674;2023-09-07T16:28:41;3.75;;;1.85;;
55212;SDS011;41083;52.932;6.674;2023-09-07T16:31:07;4.32;;;2.15;;
55212;SDS011;41083;52.932;6.674;2023-09-07T16:33:32;3.47;;;1.90;;
55212;SDS011;41083;52.932;6.674;2023-09-07T16:35:58;4.15;;;2.20;;
55212;SDS011;41083;52.932;6.674;2023-09-07T16:38:25;3.08;;;1.85;;
55212;SDS011;41083;52.932;6.674;2023-09-07T16:40:51;3.47;;;2.00;;
55212;SDS011;41083;52.932;6.674;2023-09-07T16:43:16;4.03;;;1.92;;
55212;SDS011;41083;52.932;6.674;2023-09-07T16:45:42;5.18;;;2.38;;
55212;SDS011;41083;52.932;6.674;2023-09-07T16:48:07;3.05;;;1.80;;
55212;SDS011;41083;52.932;6.674;2023-09-07T16:50:33;3.50;;;2.53;;
55212;SDS011;41083;52.932;6.674;2023-09-07T16:52:58;4.45;;;2.20;;
55212;SDS011;41083;52.932;6.674;2023-09-07T16:55:24;3.63;;;2.10;;
55212;SDS011;41083;52.932;6.674;2023-09-07T16:57:50;3.95;;;2.50;;
55212;SDS011;41083;52.932;6.674;2023-09-07T17:00:15;4.00;;;1.80;;
55212;SDS011;41083;52.932;6.674;2023-09-07T17:02:41;4.65;;;1.90;;
55212;SDS011;41083;52.932;6.674;2023-09-07T17:05:07;4.88;;;2.08;;
55212;SDS011;41083;52.932;6.674;2023-09-07T17:07:35;3.63;;;1.80;;
55212;SDS011;41083;52.932;6.674;2023-09-07T17:10:02;4.25;;;2.20;;
55212;SDS011;41083;52.932;6.674;2023-09-07T17:12:27;5.07;;;2.42;;
55212;SDS011;41083;52.932;6.674;2023-09-07T17:14:53;3.28;;;1.90;;
55212;SDS011;41083;52.932;6.674;2023-09-07T17:17:18;6.88;;;2.40;;
55212;SDS011;41083;52.932;6.674;2023-09-07T17:19:44;3.00;;;2.10;;
55212;SDS011;41083;52.932;6.674;2023-09-07T17:22:10;3.58;;;2.17;;
55212;SDS011;41083;52.932;6.674;2023-09-07T17:24:37;4.07;;;2.28;;
55212;SDS011;41083;52.932;6.674;2023-09-07T17:27:02;3.33;;;2.08;;
55212;SDS011;41083;52.932;6.674;2023-09-07T17:29:28;5.15;;;2.60;;
55212;SDS011;41083;52.932;6.674;2023-09-07T17:31:54;4.68;;;2.60;;
55212;SDS011;41083;52.932;6.674;2023-09-07T17:34:19;4.43;;;2.25;;
55212;SDS011;41083;52.932;6.674;2023-09-07T17:36:48;3.88;;;2.42;;
55212;SDS011;41083;52.932;6.674;2023-09-07T17:39:14;3.80;;;2.42;;
55212;SDS011;41083;52.932;6.674;2023-09-07T17:41:39;3.58;;;2.42;;
55212;SDS011;41083;52.932;6.674;2023-09-07T17:44:05;4.68;;;2.42;;
55212;SDS011;41083;52.932;6.674;2023-09-07T17:46:31;5.60;;;2.50;;